sensor_id;sensor_type;location;lat;lon;timestamp;P1;durP1;ratioP1;P2;durP2;ratioP2
32198;SDS011;73953;42.656;21.156;2024-03-02T00:00:50;7.75;;;5.70;;
32198;SDS011;73953;42.656;21.156;2024-03-02T00:03:18;11.68;;;7.90;;
32198;SDS011;73953;42.656;21.156;2024-03-02T00:05:49;15.52;;;7.93;;
32198;SDS011;73953;42.656;21.156;2024-03-02T00:08:19;13.20;;;9.20;;
32198;SDS011;73953;42.656;21.156;2024-03-02T00:10:49;13.50;;;9.27;;
32198;SDS011;73953;42.656;21.156;2024-03-02T00:13:20;19.17;;;10.32;;
32198;SDS011;73953;42.656;21.156;2024-03-02T00:18:27;17.00;;;11.35;;
32198;SDS011;73953;42.656;21.156;2024-03-02T00:20:57;23.02;;;15.10;;
32198;SDS011;73953;42.656;21.156;2024-03-02T00:23:27;23.08;;;13.88;;
32198;SDS011;73953;42.656;21.156;2024-03-02T00:25:56;21.33;;;13.52;;
32198;SDS011;73953;42.656;21.156;2024-03-02T00:28:24;25.50;;;15.90;;
32198;SDS011;73953;42.656;21.156;2024-03-02T00:30:52;23.35;;;14.40;;
32198;SDS011;73953;42.656;21.156;2024-03-02T00:33:21;18.00;;;14.65;;
32198;SDS011;73953;42.656;21.156;2024-03-02T00:35:49;23.63;;;15.35;;
32198;SDS011;73953;42.656;21.156;2024-03-02T00:38:16;20.17;;;15.18;;
32198;SDS011;73953;42.656;21.156;2024-03-02T00:40:43;18.98;;;14.30;;
32198;SDS011;73953;42.656;21.156;2024-03-02T00:45:59;21.05;;;15.57;;
32198;SDS011;73953;42.656;21.156;2024-03-02T00:48:26;21.52;;;13.77;;
32198;SDS011;73953;42.656;21.156;2024-03-02T00:50:53;20.60;;;14.30;;
32198;SDS011;73953;42.656;21.156;2024-03-02T00:53:21;17.65;;;12.60;;
32198;SDS011;73953;42.656;21.156;2024-03-02T00:55:50;20.77;;;12.97;;
32198;SDS011;73953;42.656;21.156;2024-03-02T00:58:17;19.83;;;13.02;;
32198;SDS011;73953;42.656;21.156;2024-03-02T01:00:44;20.88;;;13.70;;
32198;SDS011;73953;42.656;21.156;2024-03-02T01:03:12;17.73;;;12.73;;
32198;SDS011;73953;42.656;21.156;2024-03-02T01:05:42;16.75;;;11.57;;
32198;SDS011;73953;42.656;21.156;2024-03-02T01:08:09;20.48;;;12.77;;
32198;SDS011;73953;42.656;21.156;2024-03-02T01:10:36;21.40;;;13.00;;
32198;SDS011;73953;42.656;21.156;2024-03-02T01:13:04;17.42;;;11.57;;
32198;SDS011;73953;42.656;21.156;2024-03-02T01:15:31;17.48;;;11.93;;
32198;SDS011;73953;42.656;21.156;2024-03-02T01:17:58;18.23;;;12.10;;
32198;SDS011;73953;42.656;21.156;2024-03-02T01:20:25;20.55;;;14.18;;
32198;SDS011;73953;42.656;21.156;2024-03-02T01:22:52;18.92;;;13.27;;
32198;SDS011;73953;42.656;21.156;2024-03-02T01:25:19;16.15;;;11.18;;
32198;SDS011;73953;42.656;21.156;2024-03-02T01:27:46;17.08;;;11.52;;
32198;SDS011;73953;42.656;21.156;2024-03-02T01:30:16;18.40;;;11.70;;
32198;SDS011;73953;42.656;21.156;2024-03-02T01:32:43;16.92;;;11.52;;
32198;SDS011;73953;42.656;21.156;2024-03-02T01:35:10;19.42;;;12.27;;
32198;SDS011;73953;42.656;21.156;2024-03-02T01:37:38;18.52;;;12.45;;
32198;SDS011;73953;42.656;21.156;2024-03-02T01:40:05;18.55;;;12.52;;
32198;SDS011;73953;42.656;21.156;2024-03-02T01:42:36;21.65;;;12.25;;
32198;SDS011;73953;42.656;21.156;2024-03-02T01:45:07;16.75;;;11.93;;
32198;SDS011;73953;42.656;21.156;2024-03-02T01:47:35;16.00;;;11.23;;
32198;SDS011;73953;42.656;21.156;2024-03-02T01:50:02;18.30;;;11.73;;
32198;SDS011;73953;42.656;21.156;2024-03-02T01:52:29;15.55;;;11.32;;
32198;SDS011;73953;42.656;21.156;2024-03-02T01:54:56;17.25;;;11.80;;
32198;SDS011;73953;42.656;21.156;2024-03-02T01:57:23;23.30;;;13.20;;
32198;SDS011;73953;42.656;21.156;2024-03-02T01:59:50;18.77;;;13.15;;
32198;SDS011;73953;42.656;21.156;2024-03-02T02:02:17;22.00;;;13.60;;
32198;SDS011;73953;42.656;21.156;2024-03-02T02:04:44;21.63;;;13.75;;
32198;SDS011;73953;42.656;21.156;2024-03-02T02:07:11;22.08;;;15.45;;
32198;SDS011;73953;42.656;21.156;2024-03-02T02:09:42;24.55;;;15.65;;
32198;SDS011;73953;42.656;21.156;2024-03-02T02:12:09;21.10;;;14.45;;
32198;SDS011;73953;42.656;21.156;2024-03-02T02:14:36;19.70;;;13.80;;
32198;SDS011;73953;42.656;21.156;2024-03-02T02:17:05;18.52;;;13.50;;
32198;SDS011;73953;42.656;21.156;2024-03-02T02:19:32;26.25;;;15.77;;
32198;SDS011;73953;42.656;21.156;2024-03-02T02:21:59;25.20;;;15.82;;
32198;SDS011;73953;42.656;21.156;2024-03-02T02:24:26;23.35;;;16.42;;
32198;SDS011;73953;42.656;21.156;2024-03-02T02:26:55;21.48;;;17.08;;
32198;SDS011;73953;42.656;21.156;2024-03-02T02:29:22;22.67;;;16.85;;
32198;SDS011;73953;42.656;21.156;2024-03-02T02:31:50;20.58;;;15.45;;
32198;SDS011;73953;42.656;21.156;2024-03-02T02:34:17;12.45;;;9.75;;
32198;SDS011;73953;42.656;21.156;2024-03-02T02:36:45;12.63;;;9.93;;
32198;SDS011;73953;42.656;21.156;2024-03-02T02:39:13;18.13;;;12.75;;
32198;SDS011;73953;42.656;21.156;2024-03-02T02:41:41;16.52;;;11.60;;
32198;SDS011;73953;42.656;21.156;2024-03-02T02:44:11;15.48;;;11.32;;
32198;SDS011;73953;42.656;21.156;2024-03-02T02:46:41;19.95;;;13.23;;
32198;SDS011;73953;42.656;21.156;2024-03-02T02:49:08;17.75;;;11.88;;
32198;SDS011;73953;42.656;21.156;2024-03-02T02:51:35;15.68;;;11.70;;
32198;SDS011;73953;42.656;21.156;2024-03-02T02:54:03;14.65;;;11.25;;
32198;SDS011;73953;42.656;21.156;2024-03-02T02:56:30;14.90;;;11.13;;
32198;SDS011;73953;42.656;21.156;2024-03-02T02:58:57;14.25;;;11.80;;
32198;SDS011;73953;42.656;21.156;2024-03-02T03:01:24;16.30;;;12.05;;
32198;SDS011;73953;42.656;21.156;2024-03-02T03:03:51;14.55;;;11.00;;
32198;SDS011;73953;42.656;21.156;2024-03-02T03:06:18;13.52;;;11.15;;
32198;SDS011;73953;42.656;21.156;2024-03-02T03:08:45;14.70;;;10.80;;
32198;SDS011;73953;42.656;21.156;2024-03-02T03:11:16;12.63;;;10.00;;
32198;SDS011;73953;42.656;21.156;2024-03-02T03:13:43;15.57;;;9.65;;
32198;SDS011;73953;42.656;21.156;2024-03-02T03:16:10;12.30;;;9.27;;
32198;SDS011;73953;42.656;21.156;2024-03-02T03:18:36;12.13;;;9.98;;
32198;SDS011;73953;42.656;21.156;2024-03-02T03:21:05;10.73;;;7.88;;
32198;SDS011;73953;42.656;21.156;2024-03-02T03:23:32;13.43;;;8.55;;
32198;SDS011;73953;42.656;21.156;2024-03-02T03:25:59;11.25;;;8.30;;
32198;SDS011;73953;42.656;21.156;2024-03-02T03:28:26;10.48;;;8.25;;
32198;SDS011;73953;42.656;21.156;2024-03-02T03:30:55;12.85;;;8.60;;
32198;SDS011;73953;42.656;21.156;2024-03-02T03:33:22;12.43;;;9.32;;
32198;SDS011;73953;42.656;21.156;2024-03-02T03:35:49;13.00;;;9.65;;
32198;SDS011;73953;42.656;21.156;2024-03-02T03:38:16;15.02;;;10.40;;
32198;SDS011;73953;42.656;21.156;2024-03-02T03:40:43;13.75;;;10.43;;
32198;SDS011;73953;42.656;21.156;2024-03-02T03:43:11;13.38;;;9.88;;
32198;SDS011;73953;42.656;21.156;2024-03-02T03:45:38;12.85;;;10.52;;
32198;SDS011;73953;42.656;21.156;2024-03-02T03:48:05;14.77;;;10.70;;
32198;SDS011;73953;42.656;21.156;2024-03-02T03:50:33;14.32;;;10.50;;
32198;SDS011;73953;42.656;21.156;2024-03-02T03:53:01;12.02;;;8.85;;
32198;SDS011;73953;42.656;21.156;2024-03-02T03:55:28;13.10;;;9.80;;
32198;SDS011;73953;42.656;21.156;2024-03-02T03:57:55;11.70;;;8.35;;
32198;SDS011;73953;42.656;21.156;2024-03-02T04:00:23;12.63;;;8.05;;
32198;SDS011;73953;42.656;21.156;2024-03-02T04:02:50;9.10;;;6.57;;
32198;SDS011;73953;42.656;21.156;2024-03-02T04:05:17;9.77;;;7.40;;
32198;SDS011;73953;42.656;21.156;2024-03-02T04:07:44;9.80;;;6.97;;
32198;SDS011;73953;42.656;21.156;2024-03-02T04:10:11;9.15;;;6.30;;
32198;SDS011;73953;42.656;21.156;2024-03-02T04:12:39;8.45;;;5.80;;
32198;SDS011;73953;42.656;21.156;2024-03-02T04:15:06;8.25;;;5.82;;
32198;SDS011;73953;42.656;21.156;2024-03-02T04:17:34;9.27;;;6.57;;
32198;SDS011;73953;42.656;21.156;2024-03-02T04:20:02;9.65;;;6.88;;
32198;SDS011;73953;42.656;21.156;2024-03-02T04:22:35;10.15;;;7.97;;
32198;SDS011;73953;42.656;21.156;2024-03-02T04:25:02;13.10;;;9.03;;
32198;SDS011;73953;42.656;21.156;2024-03-02T04:27:31;11.30;;;9.48;;
32198;SDS011;73953;42.656;21.156;2024-03-02T04:30:00;14.90;;;9.80;;
32198;SDS011;73953;42.656;21.156;2024-03-02T04:32:27;12.50;;;9.60;;
32198;SDS011;73953;42.656;21.156;2024-03-02T04:34:54;13.55;;;9.73;;
32198;SDS011;73953;42.656;21.156;2024-03-02T04:37:21;13.30;;;10.63;;
32198;SDS011;73953;42.656;21.156;2024-03-02T04:39:48;17.15;;;11.32;;
32198;SDS011;73953;42.656;21.156;2024-03-02T04:42:15;13.88;;;10.57;;
32198;SDS011;73953;42.656;21.156;2024-03-02T04:44:42;13.10;;;9.90;;
32198;SDS011;73953;42.656;21.156;2024-03-02T04:47:09;13.55;;;9.65;;
32198;SDS011;73953;42.656;21.156;2024-03-02T04:49:36;15.63;;;10.20;;
32198;SDS011;73953;42.656;21.156;2024-03-02T04:52:03;12.27;;;9.77;;
32198;SDS011;73953;42.656;21.156;2024-03-02T04:54:31;14.38;;;9.43;;
32198;SDS011;73953;42.656;21.156;2024-03-02T04:56:58;12.30;;;9.13;;
32198;SDS011;73953;42.656;21.156;2024-03-02T04:59:25;14.10;;;9.57;;
32198;SDS011;73953;42.656;21.156;2024-03-02T05:01:52;12.40;;;9.43;;
32198;SDS011;73953;42.656;21.156;2024-03-02T05:04:19;12.10;;;9.52;;
32198;SDS011;73953;42.656;21.156;2024-03-02T05:06:46;10.18;;;7.05;;
32198;SDS011;73953;42.656;21.156;2024-03-02T05:09:20;7.88;;;6.15;;
32198;SDS011;73953;42.656;21.156;2024-03-02T05:11:48;7.22;;;5.55;;
32198;SDS011;73953;42.656;21.156;2024-03-02T05:14:36;15.18;;;6.50;;
32198;SDS011;73953;42.656;21.156;2024-03-02T05:17:04;11.93;;;5.90;;
32198;SDS011;73953;42.656;21.156;2024-03-02T05:19:31;9.65;;;5.50;;
32198;SDS011;73953;42.656;21.156;2024-03-02T05:21:58;8.55;;;6.07;;
32198;SDS011;73953;42.656;21.156;2024-03-02T05:24:25;13.80;;;5.75;;
32198;SDS011;73953;42.656;21.156;2024-03-02T05:26:57;12.48;;;7.50;;
32198;SDS011;73953;42.656;21.156;2024-03-02T05:29:24;11.05;;;7.85;;
32198;SDS011;73953;42.656;21.156;2024-03-02T05:31:51;15.55;;;8.98;;
32198;SDS011;73953;42.656;21.156;2024-03-02T05:34:18;18.20;;;11.05;;
32198;SDS011;73953;42.656;21.156;2024-03-02T05:36:45;18.27;;;12.02;;
32198;SDS011;73953;42.656;21.156;2024-03-02T05:39:12;21.77;;;13.93;;
32198;SDS011;73953;42.656;21.156;2024-03-02T05:41:40;21.52;;;14.65;;
32198;SDS011;73953;42.656;21.156;2024-03-02T05:44:08;20.40;;;14.48;;
32198;SDS011;73953;42.656;21.156;2024-03-02T05:46:35;19.13;;;14.32;;
32198;SDS011;73953;42.656;21.156;2024-03-02T05:49:05;20.70;;;14.80;;
32198;SDS011;73953;42.656;21.156;2024-03-02T05:51:38;24.20;;;14.98;;
32198;SDS011;73953;42.656;21.156;2024-03-02T05:54:05;19.08;;;11.77;;
32198;SDS011;73953;42.656;21.156;2024-03-02T05:56:32;17.95;;;11.98;;
32198;SDS011;73953;42.656;21.156;2024-03-02T05:58:59;16.55;;;13.15;;
32198;SDS011;73953;42.656;21.156;2024-03-02T06:01:40;22.63;;;13.30;;
32198;SDS011;73953;42.656;21.156;2024-03-02T06:04:07;18.27;;;11.70;;
32198;SDS011;73953;42.656;21.156;2024-03-02T06:06:34;21.13;;;12.73;;
32198;SDS011;73953;42.656;21.156;2024-03-02T06:09:02;20.83;;;12.70;;
32198;SDS011;73953;42.656;21.156;2024-03-02T06:11:40;14.07;;;11.20;;
32198;SDS011;73953;42.656;21.156;2024-03-02T06:14:08;15.10;;;10.80;;
32198;SDS011;73953;42.656;21.156;2024-03-02T06:16:37;12.98;;;10.50;;
32198;SDS011;73953;42.656;21.156;2024-03-02T06:19:04;11.23;;;8.98;;
32198;SDS011;73953;42.656;21.156;2024-03-02T06:21:31;17.40;;;9.88;;
32198;SDS011;73953;42.656;21.156;2024-03-02T06:23:58;13.73;;;8.80;;
32198;SDS011;73953;42.656;21.156;2024-03-02T06:26:28;11.50;;;8.38;;
32198;SDS011;73953;42.656;21.156;2024-03-02T06:28:58;9.05;;;7.57;;
32198;SDS011;73953;42.656;21.156;2024-03-02T06:31:26;10.82;;;7.38;;
32198;SDS011;73953;42.656;21.156;2024-03-02T06:33:55;11.00;;;8.55;;
32198;SDS011;73953;42.656;21.156;2024-03-02T06:36:22;12.13;;;8.77;;
32198;SDS011;73953;42.656;21.156;2024-03-02T06:38:50;11.63;;;7.97;;
32198;SDS011;73953;42.656;21.156;2024-03-02T06:41:17;10.48;;;7.55;;
32198;SDS011;73953;42.656;21.156;2024-03-02T06:43:44;12.05;;;7.85;;
32198;SDS011;73953;42.656;21.156;2024-03-02T06:46:11;11.63;;;8.23;;
32198;SDS011;73953;42.656;21.156;2024-03-02T06:48:41;11.48;;;7.90;;
32198;SDS011;73953;42.656;21.156;2024-03-02T06:51:11;11.93;;;7.90;;
32198;SDS011;73953;42.656;21.156;2024-03-02T06:53:38;12.70;;;8.93;;
32198;SDS011;73953;42.656;21.156;2024-03-02T06:56:06;14.23;;;9.30;;
32198;SDS011;73953;42.656;21.156;2024-03-02T06:58:33;13.52;;;9.63;;
32198;SDS011;73953;42.656;21.156;2024-03-02T07:01:00;13.13;;;9.48;;
32198;SDS011;73953;42.656;21.156;2024-03-02T07:03:27;13.10;;;9.77;;
32198;SDS011;73953;42.656;21.156;2024-03-02T07:05:54;14.00;;;9.52;;
32198;SDS011;73953;42.656;21.156;2024-03-02T07:08:21;13.77;;;9.23;;
32198;SDS011;73953;42.656;21.156;2024-03-02T07:10:48;16.85;;;8.93;;
32198;SDS011;73953;42.656;21.156;2024-03-02T07:13:16;14.20;;;8.88;;
32198;SDS011;73953;42.656;21.156;2024-03-02T07:15:43;16.23;;;10.75;;
32198;SDS011;73953;42.656;21.156;2024-03-02T07:18:26;17.08;;;11.02;;
32198;SDS011;73953;42.656;21.156;2024-03-02T07:20:53;21.85;;;12.48;;
32198;SDS011;73953;42.656;21.156;2024-03-02T07:23:22;21.15;;;11.65;;
32198;SDS011;73953;42.656;21.156;2024-03-02T07:28:26;17.58;;;12.15;;
32198;SDS011;73953;42.656;21.156;2024-03-02T07:31:02;20.63;;;11.82;;
32198;SDS011;73953;42.656;21.156;2024-03-02T07:33:31;23.85;;;12.02;;
32198;SDS011;73953;42.656;21.156;2024-03-02T07:35:59;22.23;;;11.30;;
32198;SDS011;73953;42.656;21.156;2024-03-02T07:38:31;24.88;;;12.73;;
32198;SDS011;73953;42.656;21.156;2024-03-02T07:40:58;32.67;;;17.08;;
32198;SDS011;73953;42.656;21.156;2024-03-02T07:43:25;25.17;;;13.50;;
32198;SDS011;73953;42.656;21.156;2024-03-02T07:45:52;39.60;;;19.83;;
32198;SDS011;73953;42.656;21.156;2024-03-02T07:48:20;21.63;;;12.38;;
32198;SDS011;73953;42.656;21.156;2024-03-02T07:50:47;27.25;;;15.38;;
32198;SDS011;73953;42.656;21.156;2024-03-02T07:53:14;25.85;;;12.68;;
32198;SDS011;73953;42.656;21.156;2024-03-02T07:55:41;19.50;;;10.68;;
32198;SDS011;73953;42.656;21.156;2024-03-02T07:58:09;14.50;;;9.32;;
32198;SDS011;73953;42.656;21.156;2024-03-02T08:00:36;16.30;;;8.48;;
32198;SDS011;73953;42.656;21.156;2024-03-02T08:03:03;16.67;;;9.60;;
32198;SDS011;73953;42.656;21.156;2024-03-02T08:05:30;16.95;;;9.57;;
32198;SDS011;73953;42.656;21.156;2024-03-02T08:07:57;23.13;;;9.90;;
32198;SDS011;73953;42.656;21.156;2024-03-02T08:10:24;17.83;;;10.38;;
32198;SDS011;73953;42.656;21.156;2024-03-02T08:12:51;22.95;;;10.60;;
32198;SDS011;73953;42.656;21.156;2024-03-02T08:15:19;19.90;;;11.20;;
32198;SDS011;73953;42.656;21.156;2024-03-02T08:17:46;23.90;;;10.38;;
32198;SDS011;73953;42.656;21.156;2024-03-02T08:20:16;19.35;;;10.52;;
32198;SDS011;73953;42.656;21.156;2024-03-02T08:22:43;22.95;;;9.63;;
32198;SDS011;73953;42.656;21.156;2024-03-02T08:25:11;20.40;;;10.45;;
32198;SDS011;73953;42.656;21.156;2024-03-02T08:27:40;17.40;;;9.48;;
32198;SDS011;73953;42.656;21.156;2024-03-02T08:30:07;34.08;;;14.57;;
32198;SDS011;73953;42.656;21.156;2024-03-02T08:32:35;18.23;;;9.45;;
32198;SDS011;73953;42.656;21.156;2024-03-02T08:35:02;20.65;;;8.82;;
32198;SDS011;73953;42.656;21.156;2024-03-02T08:37:29;31.17;;;10.82;;
32198;SDS011;73953;42.656;21.156;2024-03-02T08:39:56;36.17;;;10.57;;
32198;SDS011;73953;42.656;21.156;2024-03-02T08:42:23;37.28;;;10.23;;
32198;SDS011;73953;42.656;21.156;2024-03-02T08:44:50;44.40;;;12.48;;
32198;SDS011;73953;42.656;21.156;2024-03-02T08:47:17;28.20;;;10.35;;
32198;SDS011;73953;42.656;21.156;2024-03-02T08:49:44;30.45;;;12.48;;
32198;SDS011;73953;42.656;21.156;2024-03-02T08:52:11;28.88;;;10.98;;
32198;SDS011;73953;42.656;21.156;2024-03-02T08:54:38;21.10;;;9.85;;
32198;SDS011;73953;42.656;21.156;2024-03-02T08:57:05;20.60;;;9.30;;
32198;SDS011;73953;42.656;21.156;2024-03-02T08:59:34;25.95;;;10.02;;
32198;SDS011;73953;42.656;21.156;2024-03-02T09:02:01;17.90;;;7.90;;
32198;SDS011;73953;42.656;21.156;2024-03-02T09:04:28;23.75;;;8.23;;
32198;SDS011;73953;42.656;21.156;2024-03-02T09:07:00;30.08;;;10.13;;
32198;SDS011;73953;42.656;21.156;2024-03-02T09:09:28;26.33;;;9.40;;
32198;SDS011;73953;42.656;21.156;2024-03-02T09:11:55;24.63;;;9.68;;
32198;SDS011;73953;42.656;21.156;2024-03-02T09:14:24;26.33;;;11.82;;
32198;SDS011;73953;42.656;21.156;2024-03-02T09:16:52;26.38;;;9.40;;
32198;SDS011;73953;42.656;21.156;2024-03-02T09:19:18;30.20;;;11.55;;
32198;SDS011;73953;42.656;21.156;2024-03-02T09:21:46;32.00;;;11.65;;
32198;SDS011;73953;42.656;21.156;2024-03-02T09:24:13;20.75;;;8.18;;
32198;SDS011;73953;42.656;21.156;2024-03-02T09:26:44;26.45;;;9.18;;
32198;SDS011;73953;42.656;21.156;2024-03-02T09:29:11;34.97;;;13.57;;
32198;SDS011;73953;42.656;21.156;2024-03-02T09:31:41;34.42;;;11.52;;
32198;SDS011;73953;42.656;21.156;2024-03-02T09:34:08;23.48;;;8.88;;
32198;SDS011;73953;42.656;21.156;2024-03-02T09:36:36;17.65;;;6.65;;
32198;SDS011;73953;42.656;21.156;2024-03-02T09:39:03;21.02;;;6.55;;
32198;SDS011;73953;42.656;21.156;2024-03-02T09:41:32;19.15;;;6.70;;
32198;SDS011;73953;42.656;21.156;2024-03-02T09:43:59;15.98;;;6.28;;
32198;SDS011;73953;42.656;21.156;2024-03-02T09:46:30;16.27;;;6.03;;
32198;SDS011;73953;42.656;21.156;2024-03-02T09:48:58;18.05;;;7.00;;
32198;SDS011;73953;42.656;21.156;2024-03-02T09:51:27;16.60;;;5.88;;
32198;SDS011;73953;42.656;21.156;2024-03-02T09:53:55;17.23;;;6.30;;
32198;SDS011;73953;42.656;21.156;2024-03-02T09:56:29;16.25;;;5.90;;
32198;SDS011;73953;42.656;21.156;2024-03-02T09:58:56;16.75;;;6.35;;
32198;SDS011;73953;42.656;21.156;2024-03-02T10:01:23;14.50;;;6.22;;
32198;SDS011;73953;42.656;21.156;2024-03-02T10:03:50;18.40;;;5.53;;
32198;SDS011;73953;42.656;21.156;2024-03-02T10:06:18;15.18;;;6.25;;
32198;SDS011;73953;42.656;21.156;2024-03-02T10:08:45;14.93;;;5.10;;
32198;SDS011;73953;42.656;21.156;2024-03-02T10:11:21;20.92;;;6.05;;
32198;SDS011;73953;42.656;21.156;2024-03-02T10:13:54;8.60;;;5.07;;
32198;SDS011;73953;42.656;21.156;2024-03-02T10:16:30;15.25;;;5.53;;
32198;SDS011;73953;42.656;21.156;2024-03-02T10:18:57;19.83;;;6.30;;
32198;SDS011;73953;42.656;21.156;2024-03-02T10:21:24;13.52;;;6.35;;
32198;SDS011;73953;42.656;21.156;2024-03-02T10:23:53;11.40;;;5.72;;
32198;SDS011;73953;42.656;21.156;2024-03-02T10:26:33;13.60;;;5.65;;
32198;SDS011;73953;42.656;21.156;2024-03-02T10:29:00;17.95;;;6.22;;
32198;SDS011;73953;42.656;21.156;2024-03-02T10:31:27;12.68;;;5.22;;
32198;SDS011;73953;42.656;21.156;2024-03-02T10:33:54;24.67;;;11.68;;
32198;SDS011;73953;42.656;21.156;2024-03-02T10:36:21;28.92;;;15.30;;
32198;SDS011;73953;42.656;21.156;2024-03-02T10:38:49;61.20;;;32.97;;
32198;SDS011;73953;42.656;21.156;2024-03-02T10:41:19;26.08;;;8.40;;
32198;SDS011;73953;42.656;21.156;2024-03-02T10:43:51;25.27;;;8.25;;
32198;SDS011;73953;42.656;21.156;2024-03-02T10:46:19;14.43;;;5.40;;
32198;SDS011;73953;42.656;21.156;2024-03-02T10:48:46;17.27;;;6.38;;
32198;SDS011;73953;42.656;21.156;2024-03-02T10:51:13;21.55;;;9.20;;
32198;SDS011;73953;42.656;21.156;2024-03-02T10:53:41;25.77;;;7.88;;
32198;SDS011;73953;42.656;21.156;2024-03-02T10:56:08;38.95;;;17.40;;
32198;SDS011;73953;42.656;21.156;2024-03-02T10:58:36;45.30;;;20.13;;
32198;SDS011;73953;42.656;21.156;2024-03-02T11:01:03;90.82;;;42.60;;
32198;SDS011;73953;42.656;21.156;2024-03-02T11:03:35;61.15;;;26.40;;
32198;SDS011;73953;42.656;21.156;2024-03-02T11:06:05;15.30;;;7.25;;
32198;SDS011;73953;42.656;21.156;2024-03-02T11:08:34;27.45;;;11.50;;
32198;SDS011;73953;42.656;21.156;2024-03-02T11:11:06;21.85;;;9.43;;
32198;SDS011;73953;42.656;21.156;2024-03-02T11:13:34;22.23;;;12.15;;
32198;SDS011;73953;42.656;21.156;2024-03-02T11:16:18;13.68;;;6.45;;
32198;SDS011;73953;42.656;21.156;2024-03-02T11:18:48;20.83;;;8.55;;
32198;SDS011;73953;42.656;21.156;2024-03-02T11:21:16;17.73;;;4.85;;
32198;SDS011;73953;42.656;21.156;2024-03-02T11:23:45;12.13;;;5.85;;
32198;SDS011;73953;42.656;21.156;2024-03-02T11:26:20;21.48;;;7.82;;
32198;SDS011;73953;42.656;21.156;2024-03-02T11:28:48;26.20;;;8.10;;
32198;SDS011;73953;42.656;21.156;2024-03-02T11:31:15;9.93;;;4.80;;
32198;SDS011;73953;42.656;21.156;2024-03-02T11:33:42;14.07;;;5.40;;
32198;SDS011;73953;42.656;21.156;2024-03-02T11:36:10;17.10;;;7.43;;
32198;SDS011;73953;42.656;21.156;2024-03-02T11:38:38;16.98;;;6.28;;
32198;SDS011;73953;42.656;21.156;2024-03-02T11:41:06;18.17;;;6.85;;
32198;SDS011;73953;42.656;21.156;2024-03-02T11:43:37;13.88;;;5.50;;
32198;SDS011;73953;42.656;21.156;2024-03-02T11:46:06;26.48;;;13.00;;
32198;SDS011;73953;42.656;21.156;2024-03-02T11:48:38;17.63;;;4.93;;
32198;SDS011;73953;42.656;21.156;2024-03-02T11:51:06;19.08;;;7.20;;
32198;SDS011;73953;42.656;21.156;2024-03-02T11:53:33;26.67;;;8.98;;
32198;SDS011;73953;42.656;21.156;2024-03-02T11:56:02;17.55;;;6.43;;
32198;SDS011;73953;42.656;21.156;2024-03-02T11:58:30;17.65;;;4.78;;
32198;SDS011;73953;42.656;21.156;2024-03-02T12:00:57;19.40;;;5.53;;
32198;SDS011;73953;42.656;21.156;2024-03-02T12:03:25;15.75;;;6.07;;
32198;SDS011;73953;42.656;21.156;2024-03-02T12:05:53;23.42;;;6.25;;
32198;SDS011;73953;42.656;21.156;2024-03-02T12:08:20;34.90;;;11.75;;
32198;SDS011;73953;42.656;21.156;2024-03-02T12:11:00;20.33;;;5.72;;
32198;SDS011;73953;42.656;21.156;2024-03-02T12:13:30;14.55;;;5.22;;
32198;SDS011;73953;42.656;21.156;2024-03-02T12:15:58;13.10;;;4.30;;
32198;SDS011;73953;42.656;21.156;2024-03-02T12:18:25;13.40;;;4.70;;
32198;SDS011;73953;42.656;21.156;2024-03-02T12:20:53;18.65;;;4.55;;
32198;SDS011;73953;42.656;21.156;2024-03-02T12:23:24;16.33;;;5.35;;
32198;SDS011;73953;42.656;21.156;2024-03-02T12:25:51;23.00;;;3.40;;
32198;SDS011;73953;42.656;21.156;2024-03-02T12:28:19;15.63;;;4.15;;
32198;SDS011;73953;42.656;21.156;2024-03-02T12:30:46;27.40;;;8.32;;
32198;SDS011;73953;42.656;21.156;2024-03-02T12:33:16;27.02;;;6.20;;
32198;SDS011;73953;42.656;21.156;2024-03-02T12:35:43;16.45;;;4.60;;
32198;SDS011;73953;42.656;21.156;2024-03-02T12:38:11;11.98;;;3.75;;
32198;SDS011;73953;42.656;21.156;2024-03-02T12:40:38;17.13;;;4.88;;
32198;SDS011;73953;42.656;21.156;2024-03-02T12:43:05;20.05;;;5.18;;
32198;SDS011;73953;42.656;21.156;2024-03-02T12:45:33;20.08;;;5.60;;
32198;SDS011;73953;42.656;21.156;2024-03-02T12:48:00;23.33;;;5.43;;
32198;SDS011;73953;42.656;21.156;2024-03-02T12:50:29;16.45;;;5.68;;
32198;SDS011;73953;42.656;21.156;2024-03-02T12:52:57;34.40;;;9.57;;
32198;SDS011;73953;42.656;21.156;2024-03-02T12:55:24;19.10;;;4.68;;
32198;SDS011;73953;42.656;21.156;2024-03-02T12:57:51;16.35;;;4.70;;
32198;SDS011;73953;42.656;21.156;2024-03-02T13:00:20;23.02;;;5.35;;
32198;SDS011;73953;42.656;21.156;2024-03-02T13:02:48;18.17;;;5.10;;
32198;SDS011;73953;42.656;21.156;2024-03-02T13:05:19;27.45;;;5.95;;
32198;SDS011;73953;42.656;21.156;2024-03-02T13:07:47;16.58;;;4.63;;
32198;SDS011;73953;42.656;21.156;2024-03-02T13:10:15;12.00;;;3.40;;
32198;SDS011;73953;42.656;21.156;2024-03-02T13:12:42;13.05;;;3.55;;
32198;SDS011;73953;42.656;21.156;2024-03-02T13:15:09;19.40;;;4.75;;
32198;SDS011;73953;42.656;21.156;2024-03-02T13:17:44;16.80;;;5.18;;
32198;SDS011;73953;42.656;21.156;2024-03-02T13:20:13;27.77;;;6.78;;
32198;SDS011;73953;42.656;21.156;2024-03-02T13:22:41;13.23;;;5.65;;
32198;SDS011;73953;42.656;21.156;2024-03-02T13:25:08;21.90;;;6.10;;
32198;SDS011;73953;42.656;21.156;2024-03-02T13:27:38;12.70;;;4.20;;
32198;SDS011;73953;42.656;21.156;2024-03-02T13:30:06;23.70;;;5.30;;
32198;SDS011;73953;42.656;21.156;2024-03-02T13:32:35;18.50;;;5.38;;
32198;SDS011;73953;42.656;21.156;2024-03-02T13:35:02;25.60;;;6.15;;
32198;SDS011;73953;42.656;21.156;2024-03-02T13:37:30;16.85;;;3.88;;
32198;SDS011;73953;42.656;21.156;2024-03-02T13:39:57;24.55;;;6.57;;
32198;SDS011;73953;42.656;21.156;2024-03-02T13:42:24;15.73;;;4.70;;
32198;SDS011;73953;42.656;21.156;2024-03-02T13:44:51;22.83;;;5.43;;
32198;SDS011;73953;42.656;21.156;2024-03-02T13:47:19;20.35;;;5.00;;
32198;SDS011;73953;42.656;21.156;2024-03-02T13:49:48;23.35;;;6.25;;
32198;SDS011;73953;42.656;21.156;2024-03-02T13:52:18;12.43;;;4.07;;
32198;SDS011;73953;42.656;21.156;2024-03-02T13:54:47;18.48;;;3.92;;
32198;SDS011;73953;42.656;21.156;2024-03-02T13:57:14;17.90;;;4.65;;
32198;SDS011;73953;42.656;21.156;2024-03-02T13:59:42;14.50;;;3.15;;
32198;SDS011;73953;42.656;21.156;2024-03-02T14:02:10;15.70;;;3.55;;
32198;SDS011;73953;42.656;21.156;2024-03-02T14:04:38;23.35;;;4.90;;
32198;SDS011;73953;42.656;21.156;2024-03-02T14:07:06;16.27;;;4.18;;
32198;SDS011;73953;42.656;21.156;2024-03-02T14:09:38;16.73;;;4.55;;
32198;SDS011;73953;42.656;21.156;2024-03-02T14:12:05;23.25;;;4.97;;
32198;SDS011;73953;42.656;21.156;2024-03-02T14:14:32;18.45;;;5.18;;
32198;SDS011;73953;42.656;21.156;2024-03-02T14:17:00;9.25;;;2.95;;
32198;SDS011;73953;42.656;21.156;2024-03-02T14:19:30;14.40;;;3.67;;
32198;SDS011;73953;42.656;21.156;2024-03-02T14:21:58;13.80;;;3.35;;
32198;SDS011;73953;42.656;21.156;2024-03-02T14:24:26;14.73;;;3.72;;
32198;SDS011;73953;42.656;21.156;2024-03-02T14:26:55;8.88;;;3.80;;
32198;SDS011;73953;42.656;21.156;2024-03-02T14:29:36;16.13;;;4.55;;